sensor_id;sensor_type;location;lat;lon;timestamp;temperature;humidity
40340;DHT22;26044;50.864;20.658;2023-04-03T00:00:33;2.00;99.90
40340;DHT22;26044;50.864;20.658;2023-04-03T00:03:01;2.10;99.90
40340;DHT22;26044;50.864;20.658;2023-04-03T00:05:28;2.00;99.90
40340;DHT22;26044;50.864;20.658;2023-04-03T00:07:54;2.00;99.90
40340;DHT22;26044;50.864;20.658;2023-04-03T00:10:23;2.00;99.90
40340;DHT22;26044;50.864;20.658;2023-04-03T00:12:51;2.00;99.90
40340;DHT22;26044;50.864;20.658;2023-04-03T00:15:18;1.90;99.90
40340;DHT22;26044;50.864;20.658;2023-04-03T00:17:45;2.00;99.90
40340;DHT22;26044;50.864;20.658;2023-04-03T00:20:12;2.00;99.90
40340;DHT22;26044;50.864;20.658;2023-04-03T00:22:39;2.00;99.90
40340;DHT22;26044;50.864;20.658;2023-04-03T00:25:06;2.00;99.90
40340;DHT22;26044;50.864;20.658;2023-04-03T00:27:38;2.00;99.90
40340;DHT22;26044;50.864;20.658;2023-04-03T00:30:07;1.90;99.90
40340;DHT22;26044;50.864;20.658;2023-04-03T00:32:35;1.90;99.90
40340;DHT22;26044;50.864;20.658;2023-04-03T00:35:02;1.90;99.90
40340;DHT22;26044;50.864;20.658;2023-04-03T04:05:17;0.90;99.90
40340;DHT22;26044;50.864;20.658;2023-04-03T04:07:45;0.90;99.90
40340;DHT22;26044;50.864;20.658;2023-04-03T04:10:14;0.90;99.90
40340;DHT22;26044;50.864;20.658;2023-04-03T04:12:42;0.90;99.90
40340;DHT22;26044;50.864;20.658;2023-04-03T04:15:09;0.90;99.90
40340;DHT22;26044;50.864;20.658;2023-04-03T04:17:36;0.90;99.90
40340;DHT22;26044;50.864;20.658;2023-04-03T04:20:03;0.90;99.90
40340;DHT22;26044;50.864;20.658;2023-04-03T04:22:31;0.90;99.90
40340;DHT22;26044;50.864;20.658;2023-04-03T04:24:59;0.90;99.90
40340;DHT22;26044;50.864;20.658;2023-04-03T04:27:26;0.80;99.90
40340;DHT22;26044;50.864;20.658;2023-04-03T04:29:53;0.90;99.90
40340;DHT22;26044;50.864;20.658;2023-04-03T04:32:20;0.90;99.90
40340;DHT22;26044;50.864;20.658;2023-04-03T04:34:46;0.90;99.90
40340;DHT22;26044;50.864;20.658;2023-04-03T04:37:13;0.80;99.90
40340;DHT22;26044;50.864;20.658;2023-04-03T04:39:40;0.80;99.90
40340;DHT22;26044;50.864;20.658;2023-04-03T04:42:07;0.80;99.90
40340;DHT22;26044;50.864;20.658;2023-04-03T04:44:42;0.70;99.90
40340;DHT22;26044;50.864;20.658;2023-04-03T04:47:09;0.80;99.90
40340;DHT22;26044;50.864;20.658;2023-04-03T04:49:35;0.70;99.90
40340;DHT22;26044;50.864;20.658;2023-04-03T04:52:02;0.70;99.90
40340;DHT22;26044;50.864;20.658;2023-04-03T04:54:29;0.70;99.90
40340;DHT22;26044;50.864;20.658;2023-04-03T04:56:56;0.70;99.90
40340;DHT22;26044;50.864;20.658;2023-04-03T04:59:23;0.70;99.90
40340;DHT22;26044;50.864;20.658;2023-04-03T05:01:50;0.80;99.90
40340;DHT22;26044;50.864;20.658;2023-04-03T05:04:17;0.70;99.90
40340;DHT22;26044;50.864;20.658;2023-04-03T05:06:44;0.80;99.90
40340;DHT22;26044;50.864;20.658;2023-04-03T05:09:11;0.70;99.90
40340;DHT22;26044;50.864;20.658;2023-04-03T05:11:38;0.70;99.90
40340;DHT22;26044;50.864;20.658;2023-04-03T05:14:05;0.60;99.90
40340;DHT22;26044;50.864;20.658;2023-04-03T05:16:33;0.70;99.90
40340;DHT22;26044;50.864;20.658;2023-04-03T05:19:00;0.70;99.90
40340;DHT22;26044;50.864;20.658;2023-04-03T05:21:27;0.70;99.90
40340;DHT22;26044;50.864;20.658;2023-04-03T05:24:00;0.70;99.90
40340;DHT22;26044;50.864;20.658;2023-04-03T05:26:30;0.80;99.90
40340;DHT22;26044;50.864;20.658;2023-04-03T05:28:57;0.70;99.90
40340;DHT22;26044;50.864;20.658;2023-04-03T05:31:24;0.70;99.90
40340;DHT22;26044;50.864;20.658;2023-04-03T05:33:51;0.70;99.90
40340;DHT22;26044;50.864;20.658;2023-04-03T05:36:18;0.70;99.90
40340;DHT22;26044;50.864;20.658;2023-04-03T05:38:45;0.70;99.90
40340;DHT22;26044;50.864;20.658;2023-04-03T05:41:12;0.70;99.90
40340;DHT22;26044;50.864;20.658;2023-04-03T05:43:39;0.70;99.90
40340;DHT22;26044;50.864;20.658;2023-04-03T05:46:12;0.80;99.90
40340;DHT22;26044;50.864;20.658;2023-04-03T05:48:39;0.70;99.90
40340;DHT22;26044;50.864;20.658;2023-04-03T05:51:09;0.60;99.90
40340;DHT22;26044;50.864;20.658;2023-04-03T05:53:41;0.70;99.90
40340;DHT22;26044;50.864;20.658;2023-04-03T05:56:07;0.70;99.90
40340;DHT22;26044;50.864;20.658;2023-04-03T05:58:35;0.60;99.90
40340;DHT22;26044;50.864;20.658;2023-04-03T06:01:02;0.60;99.90
40340;DHT22;26044;50.864;20.658;2023-04-03T06:03:29;0.60;99.90
40340;DHT22;26044;50.864;20.658;2023-04-03T06:05:57;0.60;99.90
40340;DHT22;26044;50.864;20.658;2023-04-03T06:08:23;0.60;99.90
40340;DHT22;26044;50.864;20.658;2023-04-03T06:10:50;0.40;99.90
40340;DHT22;26044;50.864;20.658;2023-04-03T06:13:19;0.40;99.90
40340;DHT22;26044;50.864;20.658;2023-04-03T06:15:46;0.40;99.90
40340;DHT22;26044;50.864;20.658;2023-04-03T06:18:13;0.40;99.90
40340;DHT22;26044;50.864;20.658;2023-04-03T06:20:39;0.40;99.90
40340;DHT22;26044;50.864;20.658;2023-04-03T06:23:07;0.50;99.90
40340;DHT22;26044;50.864;20.658;2023-04-03T06:25:35;0.50;99.90
40340;DHT22;26044;50.864;20.658;2023-04-03T06:28:01;0.50;99.90
40340;DHT22;26044;50.864;20.658;2023-04-03T06:30:28;0.50;99.90
40340;DHT22;26044;50.864;20.658;2023-04-03T06:32:55;0.50;99.90
40340;DHT22;26044;50.864;20.658;2023-04-03T06:35:23;0.50;99.90
40340;DHT22;26044;50.864;20.658;2023-04-03T06:37:50;0.50;99.90
40340;DHT22;26044;50.864;20.658;2023-04-03T06:40:21;0.60;99.90
40340;DHT22;26044;50.864;20.658;2023-04-03T06:42:48;0.60;99.90
40340;DHT22;26044;50.864;20.658;2023-04-03T06:45:15;0.70;99.90
40340;DHT22;26044;50.864;20.658;2023-04-03T06:47:42;0.60;99.90
40340;DHT22;26044;50.864;20.658;2023-04-03T06:50:11;0.60;99.90
40340;DHT22;26044;50.864;20.658;2023-04-03T06:52:40;0.70;99.90
40340;DHT22;26044;50.864;20.658;2023-04-03T06:55:09;0.80;99.90
40340;DHT22;26044;50.864;20.658;2023-04-03T06:57:36;0.80;99.90
40340;DHT22;26044;50.864;20.658;2023-04-03T07:00:05;0.70;99.90
40340;DHT22;26044;50.864;20.658;2023-04-03T07:02:32;0.70;99.90
40340;DHT22;26044;50.864;20.658;2023-04-03T07:04:59;0.80;99.90
40340;DHT22;26044;50.864;20.658;2023-04-03T07:07:26;0.60;99.90
40340;DHT22;26044;50.864;20.658;2023-04-03T07:09:53;0.60;99.90
40340;DHT22;26044;50.864;20.658;2023-04-03T07:12:20;0.50;99.90
40340;DHT22;26044;50.864;20.658;2023-04-03T07:14:47;0.40;99.90
40340;DHT22;26044;50.864;20.658;2023-04-03T07:17:14;0.50;99.90
40340;DHT22;26044;50.864;20.658;2023-04-03T07:19:41;0.70;99.90
40340;DHT22;26044;50.864;20.658;2023-04-03T07:22:08;0.70;99.90
40340;DHT22;26044;50.864;20.658;2023-04-03T07:24:35;0.80;99.90
40340;DHT22;26044;50.864;20.658;2023-04-03T07:27:02;0.70;99.90
40340;DHT22;26044;50.864;20.658;2023-04-03T07:29:30;0.70;99.90
40340;DHT22;26044;50.864;20.658;2023-04-03T07:31:57;0.70;99.90
40340;DHT22;26044;50.864;20.658;2023-04-03T07:34:26;0.80;99.90
40340;DHT22;26044;50.864;20.658;2023-04-03T07:36:53;0.80;99.90
40340;DHT22;26044;50.864;20.658;2023-04-03T07:39:20;0.80;99.90
40340;DHT22;26044;50.864;20.658;2023-04-03T07:41:47;0.70;99.90
40340;DHT22;26044;50.864;20.658;2023-04-03T07:44:13;0.70;99.90
40340;DHT22;26044;50.864;20.658;2023-04-03T07:46:41;0.80;99.90
40340;DHT22;26044;50.864;20.658;2023-04-03T07:49:09;0.80;99.90
40340;DHT22;26044;50.864;20.658;2023-04-03T07:51:36;0.70;99.90
40340;DHT22;26044;50.864;20.658;2023-04-03T07:54:03;0.80;99.90
40340;DHT22;26044;50.864;20.658;2023-04-03T07:56:30;0.90;99.90
40340;DHT22;26044;50.864;20.658;2023-04-03T07:58:58;0.80;99.90
40340;DHT22;26044;50.864;20.658;2023-04-03T08:01:26;0.90;99.90
40340;DHT22;26044;50.864;20.658;2023-04-03T08:03:53;1.00;99.90
40340;DHT22;26044;50.864;20.658;2023-04-03T08:06:20;1.00;99.90
40340;DHT22;26044;50.864;20.658;2023-04-03T08:08:59;1.00;99.90
40340;DHT22;26044;50.864;20.658;2023-04-03T08:11:27;1.00;99.90
40340;DHT22;26044;50.864;20.658;2023-04-03T08:13:54;1.10;99.90
40340;DHT22;26044;50.864;20.658;2023-04-03T08:16:23;1.00;99.90
40340;DHT22;26044;50.864;20.658;2023-04-03T08:18:52;1.00;99.90
40340;DHT22;26044;50.864;20.658;2023-04-03T08:21:19;1.00;99.90
40340;DHT22;26044;50.864;20.658;2023-04-03T08:23:49;0.90;99.90
40340;DHT22;26044;50.864;20.658;2023-04-03T08:26:19;1.00;99.90
40340;DHT22;26044;50.864;20.658;2023-04-03T08:28:49;1.00;99.90
40340;DHT22;26044;50.864;20.658;2023-04-03T08:31:18;1.00;99.90
40340;DHT22;26044;50.864;20.658;2023-04-03T08:33:47;1.10;99.90
40340;DHT22;26044;50.864;20.658;2023-04-03T08:36:24;1.20;99.90
40340;DHT22;26044;50.864;20.658;2023-04-03T08:38:52;1.10;99.90
40340;DHT22;26044;50.864;20.658;2023-04-03T08:41:29;1.10;99.90
40340;DHT22;26044;50.864;20.658;2023-04-03T08:49:25;1.00;99.90
40340;DHT22;26044;50.864;20.658;2023-04-03T08:51:54;1.00;99.90
40340;DHT22;26044;50.864;20.658;2023-04-03T08:54:36;1.00;99.90
40340;DHT22;26044;50.864;20.658;2023-04-03T08:57:05;1.00;99.90
40340;DHT22;26044;50.864;20.658;2023-04-03T08:59:36;1.00;99.90
40340;DHT22;26044;50.864;20.658;2023-04-03T09:02:28;1.00;99.90
40340;DHT22;26044;50.864;20.658;2023-04-03T09:04:57;1.00;99.90
40340;DHT22;26044;50.864;20.658;2023-04-03T09:07:42;1.10;99.90
40340;DHT22;26044;50.864;20.658;2023-04-03T09:10:13;1.20;99.90
40340;DHT22;26044;50.864;20.658;2023-04-03T09:12:48;1.30;99.90
40340;DHT22;26044;50.864;20.658;2023-04-03T09:15:24;1.20;99.90
40340;DHT22;26044;50.864;20.658;2023-04-03T09:18:20;1.20;99.90
40340;DHT22;26044;50.864;20.658;2023-04-03T09:23:50;1.20;99.90
40340;DHT22;26044;50.864;20.658;2023-04-03T09:26:25;1.10;99.90
40340;DHT22;26044;50.864;20.658;2023-04-03T09:28:55;1.20;99.90
40340;DHT22;26044;50.864;20.658;2023-04-03T09:31:25;1.30;99.90
40340;DHT22;26044;50.864;20.658;2023-04-03T09:33:57;1.30;99.90
40340;DHT22;26044;50.864;20.658;2023-04-03T09:36:41;1.30;99.90
40340;DHT22;26044;50.864;20.658;2023-04-03T09:39:24;1.40;99.90
40340;DHT22;26044;50.864;20.658;2023-04-03T09:42:11;1.50;99.90
40340;DHT22;26044;50.864;20.658;2023-04-03T09:44:41;1.50;99.90
40340;DHT22;26044;50.864;20.658;2023-04-03T09:49:48;1.60;99.90
40340;DHT22;26044;50.864;20.658;2023-04-03T09:52:33;1.70;99.90
40340;DHT22;26044;50.864;20.658;2023-04-03T09:55:27;1.60;99.90
40340;DHT22;26044;50.864;20.658;2023-04-03T09:58:01;1.70;99.90
40340;DHT22;26044;50.864;20.658;2023-04-03T10:00:33;1.80;99.90
40340;DHT22;26044;50.864;20.658;2023-04-03T10:03:01;1.80;99.90
40340;DHT22;26044;50.864;20.658;2023-04-03T10:05:37;1.80;99.90
40340;DHT22;26044;50.864;20.658;2023-04-03T10:10:45;2.10;99.90
40340;DHT22;26044;50.864;20.658;2023-04-03T10:13:17;2.10;99.90
40340;DHT22;26044;50.864;20.658;2023-04-03T10:15:56;2.30;99.90
40340;DHT22;26044;50.864;20.658;2023-04-03T10:21:13;2.60;99.90
40340;DHT22;26044;50.864;20.658;2023-04-03T10:24:08;2.80;99.90
40340;DHT22;26044;50.864;20.658;2023-04-03T10:29:51;2.40;99.90
40340;DHT22;26044;50.864;20.658;2023-04-03T10:37:41;2.70;99.90
40340;DHT22;26044;50.864;20.658;2023-04-03T10:40:29;2.80;99.90
40340;DHT22;26044;50.864;20.658;2023-04-03T10:43:14;3.10;99.90
40340;DHT22;26044;50.864;20.658;2023-04-03T10:45:54;3.30;99.90
40340;DHT22;26044;50.864;20.658;2023-04-03T10:54:12;3.00;99.90
40340;DHT22;26044;50.864;20.658;2023-04-03T10:56:48;3.00;99.90
40340;DHT22;26044;50.864;20.658;2023-04-03T10:59:53;3.00;99.90
40340;DHT22;26044;50.864;20.658;2023-04-03T11:02:41;2.90;99.90
40340;DHT22;26044;50.864;20.658;2023-04-03T11:05:21;2.80;99.90
40340;DHT22;26044;50.864;20.658;2023-04-03T11:07:53;2.70;99.90
40340;DHT22;26044;50.864;20.658;2023-04-03T11:13:03;2.80;99.90
40340;DHT22;26044;50.864;20.658;2023-04-03T11:15:33;2.70;99.90
40340;DHT22;26044;50.864;20.658;2023-04-03T11:18:12;2.70;99.90
40340;DHT22;26044;50.864;20.658;2023-04-03T11:20:43;2.70;99.90
40340;DHT22;26044;50.864;20.658;2023-04-03T11:23:22;2.80;99.90
40340;DHT22;26044;50.864;20.658;2023-04-03T11:26:09;2.60;99.90
40340;DHT22;26044;50.864;20.658;2023-04-03T11:28:37;2.60;99.90
40340;DHT22;26044;50.864;20.658;2023-04-03T11:31:39;2.50;99.90
40340;DHT22;26044;50.864;20.658;2023-04-03T11:36:58;2.70;99.90
40340;DHT22;26044;50.864;20.658;2023-04-03T11:39:30;2.90;99.90
40340;DHT22;26044;50.864;20.658;2023-04-03T11:44:46;2.50;99.90
40340;DHT22;26044;50.864;20.658;2023-04-03T11:47:46;2.50;99.90
40340;DHT22;26044;50.864;20.658;2023-04-03T12:01:05;2.80;99.90
40340;DHT22;26044;50.864;20.658;2023-04-03T12:13:37;2.70;99.90
40340;DHT22;26044;50.864;20.658;2023-04-03T12:16:19;2.80;99.90
40340;DHT22;26044;50.864;20.658;2023-04-03T12:19:00;2.90;99.90
40340;DHT22;26044;50.864;20.658;2023-04-03T12:40:27;3.20;99.90
40340;DHT22;26044;50.864;20.658;2023-04-03T12:46:04;3.20;99.90
40340;DHT22;26044;50.864;20.658;2023-04-03T12:48:51;3.20;99.90
40340;DHT22;26044;50.864;20.658;2023-04-03T12:54:01;3.30;99.90
40340;DHT22;26044;50.864;20.658;2023-04-03T12:56:31;3.40;99.90
40340;DHT22;26044;50.864;20.658;2023-04-03T12:59:22;3.30;99.90
40340;DHT22;26044;50.864;20.658;2023-04-03T13:01:57;3.50;99.90
40340;DHT22;26044;50.864;20.658;2023-04-03T13:04:25;3.60;99.90
40340;DHT22;26044;50.864;20.658;2023-04-03T13:06:53;3.70;99.90
40340;DHT22;26044;50.864;20.658;2023-04-03T13:09:21;3.70;99.90
40340;DHT22;26044;50.864;20.658;2023-04-03T13:12:11;3.60;99.90
40340;DHT22;26044;50.864;20.658;2023-04-03T13:14:39;3.60;99.90
40340;DHT22;26044;50.864;20.658;2023-04-03T13:17:13;3.60;99.90
40340;DHT22;26044;50.864;20.658;2023-04-03T13:19:43;3.60;99.90
40340;DHT22;26044;50.864;20.658;2023-04-03T13:24:59;3.60;99.90
40340;DHT22;26044;50.864;20.658;2023-04-03T13:27:30;3.60;99.90
40340;DHT22;26044;50.864;20.658;2023-04-03T13:29:59;3.50;99.90
40340;DHT22;26044;50.864;20.658;2023-04-03T13:32:30;3.50;99.90
40340;DHT22;26044;50.864;20.658;2023-04-03T13:34:57;3.60;99.90
40340;DHT22;26044;50.864;20.658;2023-04-03T13:37:37;3.60;99.90
40340;DHT22;26044;50.864;20.658;2023-04-03T13:42:35;3.40;99.90
40340;DHT22;26044;50.864;20.658;2023-04-03T13:45:28;3.50;99.90
40340;DHT22;26044;50.864;20.658;2023-04-03T13:48:18;3.50;99.90
40340;DHT22;26044;50.864;20.658;2023-04-03T13:51:00;3.40;99.90
40340;DHT22;26044;50.864;20.658;2023-04-03T13:53:29;3.50;99.90
40340;DHT22;26044;50.864;20.658;2023-04-03T13:56:07;3.60;99.90
40340;DHT22;26044;50.864;20.658;2023-04-03T13:58:36;3.60;99.90
40340;DHT22;26044;50.864;20.658;2023-04-03T14:06:11;3.80;99.90
40340;DHT22;26044;50.864;20.658;2023-04-03T14:08:39;3.70;99.90
40340;DHT22;26044;50.864;20.658;2023-04-03T14:11:30;3.70;99.90
40340;DHT22;26044;50.864;20.658;2023-04-03T14:14:14;3.70;99.90
40340;DHT22;26044;50.864;20.658;2023-04-03T14:16:43;3.70;99.90
40340;DHT22;26044;50.864;20.658;2023-04-03T14:19:20;3.70;99.90
40340;DHT22;26044;50.864;20.658;2023-04-03T14:21:48;3.70;99.90
40340;DHT22;26044;50.864;20.658;2023-04-03T14:24:15;3.70;99.90
40340;DHT22;26044;50.864;20.658;2023-04-03T14:26:43;3.60;99.90
40340;DHT22;26044;50.864;20.658;2023-04-03T14:29:12;3.60;99.90
40340;DHT22;26044;50.864;20.658;2023-04-03T14:31:42;3.60;99.90
40340;DHT22;26044;50.864;20.658;2023-04-03T14:34:11;3.60;99.90
40340;DHT22;26044;50.864;20.658;2023-04-03T14:36:38;3.60;99.90
40340;DHT22;26044;50.864;20.658;2023-04-03T14:39:07;3.60;99.90
40340;DHT22;26044;50.864;20.658;2023-04-03T14:41:38;3.60;99.90
40340;DHT22;26044;50.864;20.658;2023-04-03T14:44:04;3.60;99.90
40340;DHT22;26044;50.864;20.658;2023-04-03T14:46:36;3.70;99.90
40340;DHT22;26044;50.864;20.658;2023-04-03T14:49:25;3.80;99.90
40340;DHT22;26044;50.864;20.658;2023-04-03T14:51:52;3.80;99.90
40340;DHT22;26044;50.864;20.658;2023-04-03T14:54:21;3.60;98.40
40340;DHT22;26044;50.864;20.658;2023-04-03T14:56:56;3.50;99.90
40340;DHT22;26044;50.864;20.658;2023-04-03T14:59:25;3.50;99.90
40340;DHT22;26044;50.864;20.658;2023-04-03T15:01:52;3.50;99.90
40340;DHT22;26044;50.864;20.658;2023-04-03T15:04:20;3.40;98.00
40340;DHT22;26044;50.864;20.658;2023-04-03T15:06:48;3.50;99.90
40340;DHT22;26044;50.864;20.658;2023-04-03T15:09:24;3.50;99.90
40340;DHT22;26044;50.864;20.658;2023-04-03T15:11:53;3.60;99.90
40340;DHT22;26044;50.864;20.658;2023-04-03T15:14:20;3.70;99.90
40340;DHT22;26044;50.864;20.658;2023-04-03T15:17:05;3.60;99.90
40340;DHT22;26044;50.864;20.658;2023-04-03T15:19:41;3.50;99.90
40340;DHT22;26044;50.864;20.658;2023-04-03T15:22:16;3.50;99.90
40340;DHT22;26044;50.864;20.658;2023-04-03T15:24:44;3.50;99.90
40340;DHT22;26044;50.864;20.658;2023-04-03T15:27:11;3.40;99.90
40340;DHT22;26044;50.864;20.658;2023-04-03T15:29:39;3.40;99.90
40340;DHT22;26044;50.864;20.658;2023-04-03T15:32:08;3.40;99.90
40340;DHT22;26044;50.864;20.658;2023-04-03T15:34:36;3.40;99.90
40340;DHT22;26044;50.864;20.658;2023-04-03T15:37:03;3.40;99.90
40340;DHT22;26044;50.864;20.658;2023-04-03T15:39:30;3.40;99.90
40340;DHT22;26044;50.864;20.658;2023-04-03T15:41:57;3.30;99.90
40340;DHT22;26044;50.864;20.658;2023-04-03T15:44:26;3.30;99.90
40340;DHT22;26044;50.864;20.658;2023-04-03T15:46:53;3.30;99.90
40340;DHT22;26044;50.864;20.658;2023-04-03T15:49:21;3.20;99.90
40340;DHT22;26044;50.864;20.658;2023-04-03T15:51:48;3.30;99.90
40340;DHT22;26044;50.864;20.658;2023-04-03T15:54:15;3.20;99.90
40340;DHT22;26044;50.864;20.658;2023-04-03T15:56:42;3.20;99.90
40340;DHT22;26044;50.864;20.658;2023-04-03T15:59:09;3.20;99.90
40340;DHT22;26044;50.864;20.658;2023-04-03T16:01:38;3.20;99.90
40340;DHT22;26044;50.864;20.658;2023-04-03T16:04:08;3.20;99.90
40340;DHT22;26044;50.864;20.658;2023-04-03T16:06:36;3.20;99.90
40340;DHT22;26044;50.864;20.658;2023-04-03T16:09:04;3.20;99.90
40340;DHT22;26044;50.864;20.658;2023-04-03T16:11:31;3.20;99.90
40340;DHT22;26044;50.864;20.658;2023-04-03T16:13:58;3.20;99.90
40340;DHT22;26044;50.864;20.658;2023-04-03T16:16:25;3.20;99.90
40340;DHT22;26044;50.864;20.658;2023-04-03T16:18:54;3.20;99.90
40340;DHT22;26044;50.864;20.658;2023-04-03T16:21:22;3.20;99.90
40340;DHT22;26044;50.864;20.658;2023-04-03T16:23:50;3.20;99.90
40340;DHT22;26044;50.864;20.658;2023-04-03T16:26:17;3.20;99.90
40340;DHT22;26044;50.864;20.658;2023-04-03T16:28:44;3.10;99.90
40340;DHT22;26044;50.864;20.658;2023-04-03T16:31:11;3.10;99.90
40340;DHT22;26044;50.864;20.658;2023-04-03T16:33:38;3.10;99.90
40340;DHT22;26044;50.864;20.658;2023-04-03T16:36:05;3.10;99.90
40340;DHT22;26044;50.864;20.658;2023-04-03T16:38:32;3.00;99.90
40340;DHT22;26044;50.864;20.658;2023-04-03T16:40:59;3.00;99.90
40340;DHT22;26044;50.864;20.658;2023-04-03T16:43:34;3.00;99.90
40340;DHT22;26044;50.864;20.658;2023-04-03T16:46:02;3.00;99.90
40340;DHT22;26044;50.864;20.658;2023-04-03T16:48:30;3.00;99.90
40340;DHT22;26044;50.864;20.658;2023-04-03T16:50:57;3.00;99.90
40340;DHT22;26044;50.864;20.658;2023-04-03T16:53:25;2.90;99.90
40340;DHT22;26044;50.864;20.658;2023-04-03T16:55:58;2.90;99.90
40340;DHT22;26044;50.864;20.658;2023-04-03T16:58:25;2.90;99.90
40340;DHT22;26044;50.864;20.658;2023-04-03T17:00:51;2.90;99.90
40340;DHT22;26044;50.864;20.658;2023-04-03T17:03:21;2.90;99.90
40340;DHT22;26044;50.864;20.658;2023-04-03T17:05:51;2.90;99.90
40340;DHT22;26044;50.864;20.658;2023-04-03T17:08:18;2.90;99.90
40340;DHT22;26044;50.864;20.658;2023-04-03T17:10:45;2.90;99.90
40340;DHT22;26044;50.864;20.658;2023-04-03T17:13:15;2.70;99.90
40340;DHT22;26044;50.864;20.658;2023-04-03T17:15:42;2.80;99.90
40340;DHT22;26044;50.864;20.658;2023-04-03T17:18:10;2.80;99.90
40340;DHT22;26044;50.864;20.658;2023-04-03T17:20:36;2.90;99.90
40340;DHT22;26044;50.864;20.658;2023-04-03T17:23:05;2.80;99.90
40340;DHT22;26044;50.864;20.658;2023-04-03T17:25:37;2.70;99.90
40340;DHT22;26044;50.864;20.658;2023-04-03T17:28:04;2.70;99.90
40340;DHT22;26044;50.864;20.658;2023-04-03T17:30:31;2.70;99.90
40340;DHT22;26044;50.864;20.658;2023-04-03T17:33:00;2.80;99.90
40340;DHT22;26044;50.864;20.658;2023-04-03T17:35:27;2.70;99.90
40340;DHT22;26044;50.864;20.658;2023-04-03T17:37:58;2.70;99.90
40340;DHT22;26044;50.864;20.658;2023-04-03T17:40:25;2.70;99.90
40340;DHT22;26044;50.864;20.658;2023-04-03T17:42:53;2.70;99.90
40340;DHT22;26044;50.864;20.658;2023-04-03T17:45:19;2.60;99.90
40340;DHT22;26044;50.864;20.658;2023-04-03T17:47:47;2.70;99.90
40340;DHT22;26044;50.864;20.658;2023-04-03T17:50:17;2.60;99.90
40340;DHT22;26044;50.864;20.658;2023-04-03T17:52:44;2.70;99.90
40340;DHT22;26044;50.864;20.658;2023-04-03T17:55:11;2.70;99.90
40340;DHT22;26044;50.864;20.658;2023-04-03T17:57:39;2.70;99.90
40340;DHT22;26044;50.864;20.658;2023-04-03T18:00:08;2.60;99.90
40340;DHT22;26044;50.864;20.658;2023-04-03T18:02:35;2.60;99.90
40340;DHT22;26044;50.864;20.658;2023-04-03T18:05:03;2.60;99.90
40340;DHT22;26044;50.864;20.658;2023-04-03T18:07:30;2.60;99.90
40340;DHT22;26044;50.864;20.658;2023-04-03T18:09:57;2.60;99.90
40340;DHT22;26044;50.864;20.658;2023-04-03T18:12:25;2.60;99.90
40340;DHT22;26044;50.864;20.658;2023-04-03T18:14:54;2.60;99.90
40340;DHT22;26044;50.864;20.658;2023-04-03T18:17:21;2.60;99.90
40340;DHT22;26044;50.864;20.658;2023-04-03T18:19:47;2.60;99.90
40340;DHT22;26044;50.864;20.658;2023-04-03T18:22:18;2.60;99.90
40340;DHT22;26044;50.864;20.658;2023-04-03T18:24:48;2.60;99.90
40340;DHT22;26044;50.864;20.658;2023-04-03T18:27:18;2.60;99.90
40340;DHT22;26044;50.864;20.658;2023-04-03T18:29:49;2.60;99.90
40340;DHT22;26044;50.864;20.658;2023-04-03T18:32:18;2.60;99.90
40340;DHT22;26044;50.864;20.658;2023-04-03T18:34:46;2.60;99.90
40340;DHT22;26044;50.864;20.658;2023-04-03T18:37:13;2.50;99.90
40340;DHT22;26044;50.864;20.658;2023-04-03T18:39:41;2.50;99.90
40340;DHT22;26044;50.864;20.658;2023-04-03T18:42:19;2.50;99.90
40340;DHT22;26044;50.864;20.658;2023-04-03T18:44:49;2.50;99.90
40340;DHT22;26044;50.864;20.658;2023-04-03T18:47:41;2.30;99.90
40340;DHT22;26044;50.864;20.658;2023-04-03T18:50:09;2.50;99.90
40340;DHT22;26044;50.864;20.658;2023-04-03T18:52:36;2.40;99.90
40340;DHT22;26044;50.864;20.658;2023-04-03T18:55:03;2.40;99.90
40340;DHT22;26044;50.864;20.658;2023-04-03T18:57:30;2.40;99.90
40340;DHT22;26044;50.864;20.658;2023-04-03T18:59:57;2.30;99.90
40340;DHT22;26044;50.864;20.658;2023-04-03T19:02:24;2.30;99.90
40340;DHT22;26044;50.864;20.658;2023-04-03T19:04:52;2.30;99.90
40340;DHT22;26044;50.864;20.658;2023-04-03T19:07:20;2.20;99.90
40340;DHT22;26044;50.864;20.658;2023-04-03T19:09:47;2.20;99.90
40340;DHT22;26044;50.864;20.658;2023-04-03T19:12:14;2.20;99.90
40340;DHT22;26044;50.864;20.658;2023-04-03T19:14:41;2.20;99.90
40340;DHT22;26044;50.864;20.658;2023-04-03T19:17:07;2.20;99.90
40340;DHT22;26044;50.864;20.658;2023-04-03T19:19:34;2.10;99.90
40340;DHT22;26044;50.864;20.658;2023-04-03T19:22:01;2.10;99.90
40340;DHT22;26044;50.864;20.658;2023-04-03T19:24:28;2.10;99.90
40340;DHT22;26044;50.864;20.658;2023-04-03T19:26:55;2.10;99.90
40340;DHT22;26044;50.864;20.658;2023-04-03T19:29:22;2.00;99.90
40340;DHT22;26044;50.864;20.658;2023-04-03T19:31:49;2.00;99.90
40340;DHT22;26044;50.864;20.658;2023-04-03T19:34:19;2.00;99.90
40340;DHT22;26044;50.864;20.658;2023-04-03T19:36:57;2.00;99.90
40340;DHT22;26044;50.864;20.658;2023-04-03T19:39:31;2.00;99.90
40340;DHT22;26044;50.864;20.658;2023-04-03T19:42:51;1.90;99.90
40340;DHT22;26044;50.864;20.658;2023-04-03T19:45:26;1.90;99.90
40340;DHT22;26044;50.864;20.658;2023-04-03T19:47:58;1.90;99.90
40340;DHT22;26044;50.864;20.658;2023-04-03T19:50:34;1.70;99.90
40340;DHT22;26044;50.864;20.658;2023-04-03T19:53:14;1.70;99.90
40340;DHT22;26044;50.864;20.658;2023-04-03T19:56:59;1.60;99.90
40340;DHT22;26044;50.864;20.658;2023-04-03T19:59:52;1.80;99.90
40340;DHT22;26044;50.864;20.658;2023-04-03T20:02:20;1.80;99.90
40340;DHT22;26044;50.864;20.658;2023-04-03T20:04:47;2.10;99.90
40340;DHT22;26044;50.864;20.658;2023-04-03T20:07:14;1.60;99.90
40340;DHT22;26044;50.864;20.658;2023-04-03T20:09:41;1.60;99.90
40340;DHT22;26044;50.864;20.658;2023-04-03T20:12:08;1.60;99.90
40340;DHT22;26044;50.864;20.658;2023-04-03T20:14:36;1.70;99.90
40340;DHT22;26044;50.864;20.658;2023-04-03T20:17:05;1.60;99.90
40340;DHT22;26044;50.864;20.658;2023-04-03T20:19:33;1.60;99.90
40340;DHT22;26044;50.864;20.658;2023-04-03T20:22:00;1.50;99.90
40340;DHT22;26044;50.864;20.658;2023-04-03T20:24:27;1.60;99.90
40340;DHT22;26044;50.864;20.658;2023-04-03T20:26:57;1.50;99.90
40340;DHT22;26044;50.864;20.658;2023-04-03T20:29:24;1.60;99.90
40340;DHT22;26044;50.864;20.658;2023-04-03T20:31:55;1.30;99.90
40340;DHT22;26044;50.864;20.658;2023-04-03T20:34:22;1.50;99.90
40340;DHT22;26044;50.864;20.658;2023-04-03T20:36:49;1.50;99.90
40340;DHT22;26044;50.864;20.658;2023-04-03T20:39:17;1.40;99.90
40340;DHT22;26044;50.864;20.658;2023-04-03T20:41:46;1.50;99.90
40340;DHT22;26044;50.864;20.658;2023-04-03T20:44:13;1.40;99.90
40340;DHT22;26044;50.864;20.658;2023-04-03T20:46:41;1.20;99.90
40340;DHT22;26044;50.864;20.658;2023-04-03T20:49:14;1.40;99.90
40340;DHT22;26044;50.864;20.658;2023-04-03T20:51:41;1.40;99.90
40340;DHT22;26044;50.864;20.658;2023-04-03T20:54:09;1.40;99.90